F/V Mare Liberum — FVHW — position and weather

sailwx.info

Track history (hours):
 
Tides and Currents Weather Stations Pressure Air Temp Water Temp Dewpoint Dewpoint Depression Visibility Wind Speed Wind Dir Waves Ship Positions

F/V Mare Liberum

Last reported at 2014-Aug-25 18:09 UTC. Time now 2014-Aug-27 13:13 UTC.
Position N 46°43' W 002°12'.

Length 21 m.

Type: Fishing. MMSI: 227426000.

Date/timePositionNaut miles runAvg speedWind from/ knotsBaromVisibWave heightAir tempDewpointWater temp
2014-Aug-25 18:09N 46°43' W 002°12'4 6.5
2014-Aug-25 17:33N 46°40' W 002°08'8 7.8
2014-Aug-25 16:33N 46°35' W 001°60'9 9.0
2014-Aug-25 15:33N 46°29' W 001°50'2 2.3
2014-Aug-25 14:33N 46°30' W 001°47'  
2014-Aug-22 08:03N 46°30' W 001°47'  
2014-Aug-20 03:27N 46°30' W 001°47'0 0.0
2014-Aug-20 02:33N 46°30' W 001°47'0 0.0
2014-Aug-20 01:34N 46°30' W 001°47'0 0.0
2014-Aug-20 00:33N 46°30' W 001°47'0 0.0
2014-Aug-19 23:33N 46°30' W 001°47'0 0.0
2014-Aug-19 22:33N 46°30' W 001°47'0 0.0
2014-Aug-19 21:33N 46°30' W 001°47'0 0.0
2014-Aug-19 20:34N 46°30' W 001°47'0 0.0
2014-Aug-19 19:33N 46°30' W 001°47'0 0.0
2014-Aug-19 18:33N 46°30' W 001°47'0 0.0
2014-Aug-19 17:33N 46°30' W 001°47'0 0.0
2014-Aug-19 16:33N 46°30' W 001°47'0 0.0
2014-Aug-19 15:34N 46°30' W 001°47'0 0.0
2014-Aug-19 14:33N 46°30' W 001°47'0 0.0
2014-Aug-19 13:33N 46°30' W 001°47'0 0.0
2014-Aug-19 12:33N 46°30' W 001°47'0 0.0
2014-Aug-19 11:33N 46°30' W 001°47'0 0.0
2014-Aug-19 10:33N 46°30' W 001°47'0 0.0
2014-Aug-19 09:34N 46°30' W 001°47'0 0.0
2014-Aug-19 08:33N 46°30' W 001°47'0 0.0
2014-Aug-19 07:33N 46°30' W 001°47'0 0.0
2014-Aug-18 13:33N 46°30' W 001°47'  
Track history (hours):
 
Tides and Currents Weather Stations Pressure Air Temp Water Temp Dewpoint Dewpoint Depression Visibility Wind Speed Wind Dir Waves Ship Positions

F/V Mare Liberum

Last reported at 2014-Aug-25 18:09 UTC. Time now 2014-Aug-27 13:13 UTC.
Position N 46°43' W 002°12'.

Length 21 m.

Type: Fishing. MMSI: 227426000.

Date/timePositionNaut miles runAvg speedWind from/ knotsBaromVisibWave heightAir tempDewpointWater temp
2014-Aug-25 18:09N 46°43' W 002°12'4 6.5
2014-Aug-25 17:33N 46°40' W 002°08'8 7.8
2014-Aug-25 16:33N 46°35' W 001°60'9 9.0
2014-Aug-25 15:33N 46°29' W 001°50'2 2.3
2014-Aug-25 14:33N 46°30' W 001°47'  
2014-Aug-22 08:03N 46°30' W 001°47'  
2014-Aug-20 03:27N 46°30' W 001°47'0 0.0
2014-Aug-20 02:33N 46°30' W 001°47'0 0.0
2014-Aug-20 01:34N 46°30' W 001°47'0 0.0
2014-Aug-20 00:33N 46°30' W 001°47'0 0.0
2014-Aug-19 23:33N 46°30' W 001°47'0 0.0
2014-Aug-19 22:33N 46°30' W 001°47'0 0.0
2014-Aug-19 21:33N 46°30' W 001°47'0 0.0
2014-Aug-19 20:34N 46°30' W 001°47'0 0.0
2014-Aug-19 19:33N 46°30' W 001°47'0 0.0
2014-Aug-19 18:33N 46°30' W 001°47'0 0.0
2014-Aug-19 17:33N 46°30' W 001°47'0 0.0
2014-Aug-19 16:33N 46°30' W 001°47'0 0.0
2014-Aug-19 15:34N 46°30' W 001°47'0 0.0
2014-Aug-19 14:33N 46°30' W 001°47'0 0.0
2014-Aug-19 13:33N 46°30' W 001°47'0 0.0
2014-Aug-19 12:33N 46°30' W 001°47'0 0.0
2014-Aug-19 11:33N 46°30' W 001°47'0 0.0
2014-Aug-19 10:33N 46°30' W 001°47'0 0.0
2014-Aug-19 09:34N 46°30' W 001°47'0 0.0
2014-Aug-19 08:33N 46°30' W 001°47'0 0.0
2014-Aug-19 07:33N 46°30' W 001°47'0 0.0
2014-Aug-18 13:33N 46°30' W 001°47'  

Dump ship's entire track history